createdAt,value
2022-11-17T00:01:09.621Z,98619.41
2022-11-17T00:06:11.326Z,98603.94
2022-11-17T00:11:12.985Z,98604.22
2022-11-17T00:16:19.486Z,98613.22
2022-11-17T00:21:21.771Z,98603.19
2022-11-17T00:26:31.913Z,98607.94
2022-11-17T00:31:53.162Z,98593.91
2022-11-17T00:37:00.556Z,98602.69
2022-11-17T00:42:02.396Z,98598.59
2022-11-17T00:47:04.002Z,98594.13
2022-11-17T00:52:05.758Z,98586.63
2022-11-17T00:57:07.336Z,98586.66
2022-11-17T01:02:09.025Z,98597.06
2022-11-17T01:07:10.660Z,98595.28
2022-11-17T01:12:12.295Z,98584.88
2022-11-17T01:17:13.888Z,98577.09
2022-11-17T01:22:15.492Z,98583.06
2022-11-17T01:27:17.094Z,98582.44
2022-11-17T01:32:18.703Z,98584.06
2022-11-17T01:37:20.382Z,98567.22
2022-11-17T01:42:24.454Z,98568.09
2022-11-17T01:47:31.507Z,98578.97
2022-11-17T01:52:35.856Z,98562.69
2022-11-17T01:57:52.820Z,98567.88
2022-11-17T02:02:54.586Z,98556.50
2022-11-17T02:07:59.139Z,98560.97
2022-11-17T02:13:01.598Z,98557.91
2022-11-17T02:18:03.477Z,98547.34
2022-11-17T02:23:26.080Z,98544.44
2022-11-17T02:28:31.395Z,98539.31
2022-11-17T02:34:15.913Z,98545.72
2022-11-17T02:39:40.315Z,98539.78
2022-11-17T02:44:50.858Z,98539.13
2022-11-17T02:50:00.960Z,98537.44
2022-11-17T02:55:06.064Z,98536.50
2022-11-17T03:00:14.185Z,98546.16
2022-11-17T03:05:54.311Z,98532.09
2022-11-17T03:11:05.378Z,98523.56
2022-11-17T03:16:30.477Z,98525.47
2022-11-17T03:21:41.384Z,98523.34
2022-11-17T03:26:51.674Z,98524.41
2022-11-17T03:31:59.976Z,98521.75
2022-11-17T03:37:05.768Z,98509.31
2022-11-17T03:42:28.525Z,98515.94
2022-11-17T03:47:32.505Z,98522.47
2022-11-17T03:52:36.596Z,98517.19
2022-11-17T03:57:46.564Z,98530.47
2022-11-17T04:02:54.363Z,98507.22
2022-11-17T04:07:56.654Z,98506.00
2022-11-17T04:13:16.965Z,98513.75
2022-11-17T04:18:33.484Z,98503.16
2022-11-17T04:24:07.718Z,98493.38
2022-11-17T04:29:56.221Z,98499.19
2022-11-17T04:34:58.587Z,98501.25
2022-11-17T04:40:04.525Z,98496.44
2022-11-17T04:45:08.621Z,98488.28
2022-11-17T04:50:16.832Z,98487.88
2022-11-17T05:01:13.476Z,98482.19
2022-11-17T05:06:20.552Z,98473.19
2022-11-17T05:12:03.945Z,98470.53
2022-11-17T05:23:08.395Z,98459.84
2022-11-17T05:28:10.128Z,98450.75
2022-11-17T05:33:11.875Z,98459.78
2022-11-17T05:38:13.568Z,98463.72
2022-11-17T05:43:15.220Z,98454.44
2022-11-17T05:48:17.207Z,98447.53
2022-11-17T05:53:19.516Z,98446.28
2022-11-17T05:58:30.084Z,98452.03
2022-11-17T06:03:44.579Z,98463.16
2022-11-17T06:08:54.655Z,98460.25
2022-11-17T06:13:56.744Z,98467.72
2022-11-17T06:19:13.839Z,98467.56
2022-11-17T06:24:15.885Z,98457.31
2022-11-17T06:29:17.832Z,98459.91
2022-11-17T06:34:21.688Z,98460.88
2022-11-17T06:39:25.227Z,98443.38
2022-11-17T06:44:26.976Z,98461.75
2022-11-17T06:49:37.297Z,98451.13
2022-11-17T06:54:45.614Z,98445.72
2022-11-17T06:59:47.348Z,98441.06
2022-11-17T07:04:48.978Z,98431.13
2022-11-17T07:09:50.615Z,98427.91
2022-11-17T07:14:52.287Z,98441.72
2022-11-17T07:19:54.578Z,98441.00
2022-11-17T07:24:56.275Z,98437.06
2022-11-17T07:29:58.049Z,98439.34
2022-11-17T07:40:49.823Z,98426.03
2022-11-17T07:45:54.934Z,98428.47
2022-11-17T07:51:01.445Z,98436.28
2022-11-17T07:56:05.773Z,98438.06
2022-11-17T08:01:15.667Z,98440.72
2022-11-17T08:06:17.443Z,98441.41
2022-11-17T08:11:19.783Z,98431.22
2022-11-17T08:16:21.804Z,98431.38
2022-11-17T08:21:24.192Z,98421.81
2022-11-17T08:26:25.858Z,98428.53
2022-11-17T08:31:27.681Z,98431.97
2022-11-17T08:36:29.338Z,98422.75
2022-11-17T08:41:31.785Z,98419.69
2022-11-17T08:46:34.399Z,98413.34
2022-11-17T08:51:36.299Z,98422.94
2022-11-17T08:56:38.148Z,98429.97
2022-11-17T09:01:40.243Z,98424.38
2022-11-17T09:06:41.898Z,98441.00
2022-11-17T09:11:43.585Z,98453.34
2022-11-17T09:16:45.234Z,98454.72
2022-11-17T09:21:46.901Z,98450.25
2022-11-17T09:26:49.905Z,98436.41
2022-11-17T09:31:51.607Z,98436.38
2022-11-17T09:36:53.224Z,98430.78
2022-11-17T09:41:57.328Z,98438.84
2022-11-17T09:47:20.991Z,98439.81
2022-11-17T09:52:53.626Z,98432.00
2022-11-17T09:58:01.157Z,98428.78
2022-11-17T10:03:21.402Z,98432.09
2022-11-17T10:08:35.422Z,98419.38
2022-11-17T10:13:37.947Z,98415.81
2022-11-17T10:18:40.117Z,98409.34
2022-11-17T10:23:55.107Z,98412.50
2022-11-17T10:29:09.407Z,98412.31
2022-11-17T10:34:13.082Z,98385.84
2022-11-17T10:39:36.073Z,98374.31
2022-11-17T10:44:43.318Z,98366.41
2022-11-17T10:49:45.710Z,98370.44
2022-11-17T10:54:49.778Z,98362.78
2022-11-17T10:59:57.144Z,98361.22
2022-11-17T11:05:13.685Z,98358.81
2022-11-17T11:10:35.416Z,98357.91
2022-11-17T11:15:37.299Z,98369.06
2022-11-17T11:20:50.031Z,98378.09
2022-11-17T11:26:01.384Z,98367.63
2022-11-17T11:31:15.178Z,98360.06
2022-11-17T11:36:27.609Z,98349.00
2022-11-17T11:41:29.123Z,98343.84
2022-11-17T11:46:39.955Z,98332.72
2022-11-17T11:51:43.956Z,98331.53
2022-11-17T11:56:48.133Z,98330.97
2022-11-17T12:01:52.934Z,98333.94
2022-11-17T12:07:07.980Z,98328.47
2022-11-17T12:12:15.628Z,98318.88
2022-11-17T12:17:23.569Z,98315.13
2022-11-17T12:22:34.388Z,98315.69
2022-11-17T12:27:36.097Z,98309.72
2022-11-17T12:32:43.962Z,98306.66
2022-11-17T12:37:45.630Z,98308.97
2022-11-17T12:43:15.501Z,98317.16
2022-11-17T12:48:33.068Z,98305.22
2022-11-17T12:54:11.026Z,98293.63
2022-11-17T12:59:15.647Z,98304.38
2022-11-17T13:04:35.872Z,98291.00
2022-11-17T13:09:37.577Z,98287.66
2022-11-17T13:14:56.971Z,98300.00
2022-11-17T13:20:01.477Z,98292.69
2022-11-17T13:31:37.990Z,98292.69
2022-11-17T13:36:57.528Z,98297.16
2022-11-17T13:42:01.362Z,98285.63
2022-11-17T13:47:27.048Z,98281.81
2022-11-17T13:52:39.201Z,98286.19
2022-11-17T13:58:19.976Z,98280.72
2022-11-17T14:03:43.728Z,98282.53
2022-11-17T14:09:03.513Z,98284.56
2022-11-17T14:14:13.054Z,98291.22
2022-11-17T14:19:14.985Z,98279.03
2022-11-17T14:24:16.963Z,98285.25
2022-11-17T14:29:18.915Z,98280.13
2022-11-17T14:34:21.342Z,98278.31
2022-11-17T14:39:22.997Z,98270.78
2022-11-17T14:44:24.760Z,98264.66
2022-11-17T14:49:26.427Z,98270.41
2022-11-17T14:54:29.027Z,98267.72
2022-11-17T14:59:30.668Z,98277.09
2022-11-17T15:04:50.158Z,98273.03
2022-11-17T15:09:53.149Z,98288.72
2022-11-17T15:14:57.426Z,98281.09
2022-11-17T15:19:59.057Z,98281.75
2022-11-17T15:25:00.680Z,98295.16
2022-11-17T15:30:02.517Z,98292.09
2022-11-17T15:35:04.338Z,98288.91
2022-11-17T15:40:06.645Z,98297.50
2022-11-17T15:45:09.649Z,98291.69
2022-11-17T15:50:11.298Z,98286.78
2022-11-17T15:55:12.920Z,98291.63
2022-11-17T16:00:15.385Z,98280.09
2022-11-17T16:05:17.043Z,98280.63
2022-11-17T16:10:18.771Z,98282.03
2022-11-17T16:15:22.935Z,98282.03
2022-11-17T16:20:24.694Z,98280.47
2022-11-17T16:25:26.999Z,98275.94
2022-11-17T16:30:34.193Z,98280.81
2022-11-17T16:35:38.632Z,98284.72
2022-11-17T16:40:41.442Z,98279.44
2022-11-17T16:45:45.552Z,98278.84
2022-11-17T16:50:48.471Z,98267.22
2022-11-17T16:55:50.125Z,98262.47
2022-11-17T17:00:51.820Z,98266.94
2022-11-17T17:05:53.511Z,98272.81
2022-11-17T17:10:55.196Z,98267.03
2022-11-17T17:16:02.569Z,98265.06
2022-11-17T17:21:05.564Z,98268.19
2022-11-17T17:26:14.210Z,98271.06
2022-11-17T17:31:21.647Z,98266.69
2022-11-17T17:36:25.417Z,98268.59
2022-11-17T17:41:29.460Z,98269.66
2022-11-17T17:46:34.605Z,98269.28
2022-11-17T17:51:40.228Z,98279.53
2022-11-17T17:56:42.155Z,98276.41
2022-11-17T18:01:48.296Z,98271.91
2022-11-17T18:06:51.101Z,98265.09
2022-11-17T18:11:53.786Z,98267.72
2022-11-17T18:16:55.887Z,98273.06
2022-11-17T18:21:57.576Z,98263.31
2022-11-17T18:26:59.251Z,98274.75
2022-11-17T18:32:00.923Z,98259.56
2022-11-17T18:37:02.531Z,98271.19
2022-11-17T18:42:04.446Z,98270.28
2022-11-17T18:47:06.579Z,98262.34
2022-11-17T18:52:09.817Z,98255.81
2022-11-17T18:57:11.601Z,98251.13
2022-11-17T19:02:22.628Z,98257.06
2022-11-17T19:07:32.405Z,98262.97
2022-11-17T19:12:34.060Z,98269.81
2022-11-17T19:17:35.849Z,98269.31
2022-11-17T19:22:37.480Z,98273.28
2022-11-17T19:27:39.125Z,98269.25
2022-11-17T19:32:41.079Z,98278.13
2022-11-17T19:37:42.738Z,98272.81
2022-11-17T19:42:48.699Z,98291.59
2022-11-17T19:47:50.371Z,98287.88
2022-11-17T19:52:52.025Z,98282.94
2022-11-17T19:57:54.194Z,98282.16
2022-11-17T20:02:55.857Z,98274.94
2022-11-17T20:07:57.709Z,98275.53
2022-11-17T20:12:59.493Z,98283.66
2022-11-17T20:18:04.730Z,98290.91
2022-11-17T20:23:08.478Z,98286.84
2022-11-17T20:28:10.184Z,98294.19
2022-11-17T20:33:18.088Z,98282.09
2022-11-17T20:38:19.706Z,98284.56
2022-11-17T20:43:21.276Z,98274.75
2022-11-17T20:48:24.717Z,98274.69
2022-11-17T20:53:29.550Z,98264.13
2022-11-17T20:58:32.104Z,98271.00
2022-11-17T21:03:33.940Z,98270.69
2022-11-17T21:08:38.138Z,98268.13
2022-11-17T21:13:39.792Z,98278.31
2022-11-17T21:18:46.668Z,98291.47
2022-11-17T21:23:52.112Z,98294.25
2022-11-17T21:28:53.973Z,98290.56
2022-11-17T21:33:58.585Z,98289.81
2022-11-17T21:39:00.786Z,98279.72
2022-11-17T21:44:03.503Z,98283.91
2022-11-17T21:49:05.252Z,98272.03
2022-11-17T21:54:08.526Z,98272.91
2022-11-17T21:59:12.540Z,98272.72
2022-11-17T22:04:15.773Z,98280.53
2022-11-17T22:09:19.212Z,98292.97
2022-11-17T22:14:21.649Z,98301.38
2022-11-17T22:19:26.743Z,98305.47
2022-11-17T22:24:28.310Z,98298.63
2022-11-17T22:29:29.899Z,98304.47
2022-11-17T22:34:31.531Z,98303.22
2022-11-17T22:39:33.185Z,98294.13
2022-11-17T22:44:34.957Z,98288.69
2022-11-17T22:49:36.799Z,98301.75
2022-11-17T22:54:38.429Z,98306.56
2022-11-17T22:59:40.064Z,98308.69
2022-11-17T23:04:41.682Z,98302.75
2022-11-17T23:09:47.504Z,98306.41
2022-11-17T23:14:49.085Z,98288.72
2022-11-17T23:19:50.769Z,98300.13
2022-11-17T23:24:52.457Z,98317.44
2022-11-17T23:29:54.206Z,98321.38
2022-11-17T23:34:55.794Z,98309.44
2022-11-17T23:39:57.421Z,98324.78
2022-11-17T23:44:59.042Z,98332.81
2022-11-17T23:50:00.644Z,98337.78
2022-11-17T23:55:02.848Z,98329.09
